map of TEA home
Great Circle Mapper logo
TEA - Airport
Location
City:  Tela, Honduras
ICAO / IATA:MHTE / TEA

Details
Type:Airport (Aerodrome, Airfield)
Latitude:1546'33"N (15.775864)
Longitude:8728'33"W (-87.475846)
Datum:WGS 1984
Elevation:7 ft (2 m)
Runways:1
Longest:4415 × 98 ft (1346 × 30 m), paved

Time
Time Zone:UTC-6
Local Time:

Weather
METAR:MHTE 172300Z 04004KT 9999 BKN028CB 30/25 Q1009 CB S W

Related Locations
Nearby:
Farthest:CCK: 12061 mi / 19410 km
West Island (Pulau Panjang) [Cocos (Keeling) Islands], CC

Find:

   beyond  
but within

Other Information
Maps:
NOTAMs:
Links:
Sources:

  
flag of Honduras   

Sectional Chart

Flight Planning
at skyvector.com

Satellite Image

Google Maps Satellite View

 

Copyright © 2004-2014 Karl L. Swartz. All rights reserved.
The Great Circle Mapper name and logo are trademarks of the Great Circle Mapper.
All other trademarks mentioned herein belong to their respective owners.
Please see credits for attibutions and further copyright information.

  Follow gcmap on Facebook Follow gcmap on Twitter

hCard Microformat

Geo Microformat